Aviation Digital Data Service (ADDS)

Output produced by METARs form (1237 UTC 19 April 2015)
found at http://aviationweather.gov/adds/metars/
 
KISO 191215Z 1912/2012 07003KT 1/4SM FG OVC002 
     FM191300 08010KT P6SM VCSH SCT020 BKN050 
     FM191700 14010KT 4SM -SHRA OVC025 
     FM192200 14010KT 3SM SHRA OVC007 
     FM200600 20008KT 5SM -SHRA OVC005 AMD LTD TO CLD VIS AND WIND